sensor_id;sensor_type;location;lat;lon;timestamp;P1;P2;P0
31330;PMS5003;34067;39.548;-76.088;2023-02-01T00:01:05;14;13;
31330;PMS5003;34067;39.548;-76.088;2023-02-01T00:03:33;21;18;
31330;PMS5003;34067;39.548;-76.088;2023-02-01T00:06:03;17;16;
31330;PMS5003;34067;39.548;-76.088;2023-02-01T00:08:31;14;11;
31330;PMS5003;34067;39.548;-76.088;2023-02-01T00:11:00;17;13;
31330;PMS5003;34067;39.548;-76.088;2023-02-01T00:13:31;16;13;
31330;PMS5003;34067;39.548;-76.088;2023-02-01T00:16:04;19;14;
31330;PMS5003;34067;39.548;-76.088;2023-02-01T00:18:33;17;14;
31330;PMS5003;34067;39.548;-76.088;2023-02-01T00:21:01;15;13;
31330;PMS5003;34067;39.548;-76.088;2023-02-01T00:23:32;23;15;
31330;PMS5003;34067;39.548;-76.088;2023-02-01T00:26:00;19;17;
31330;PMS5003;34067;39.548;-76.088;2023-02-01T00:28:29;20;17;
31330;PMS5003;34067;39.548;-76.088;2023-02-01T00:30:59;13;11;
31330;PMS5003;34067;39.548;-76.088;2023-02-01T00:33:30;20;19;
31330;PMS5003;34067;39.548;-76.088;2023-02-01T00:35:59;17;15;
31330;PMS5003;34067;39.548;-76.088;2023-02-01T00:38:31;17;17;
31330;PMS5003;34067;39.548;-76.088;2023-02-01T00:41:03;20;19;
31330;PMS5003;34067;39.548;-76.088;2023-02-01T00:43:32;16;16;
31330;PMS5003;34067;39.548;-76.088;2023-02-01T00:46:00;19;17;
31330;PMS5003;34067;39.548;-76.088;2023-02-01T00:48:28;20;19;
31330;PMS5003;34067;39.548;-76.088;2023-02-01T00:50:59;21;20;
31330;PMS5003;34067;39.548;-76.088;2023-02-01T00:53:27;21;20;
31330;PMS5003;34067;39.548;-76.088;2023-02-01T00:55:56;21;21;
31330;PMS5003;34067;39.548;-76.088;2023-02-01T00:58:24;23;21;
31330;PMS5003;34067;39.548;-76.088;2023-02-01T01:01:00;24;21;
31330;PMS5003;34067;39.548;-76.088;2023-02-01T01:03:30;24;22;
31330;PMS5003;34067;39.548;-76.088;2023-02-01T01:06:00;22;19;
31330;PMS5003;34067;39.548;-76.088;2023-02-01T01:08:30;21;20;
31330;PMS5003;34067;39.548;-76.088;2023-02-01T01:11:03;17;17;
31330;PMS5003;34067;39.548;-76.088;2023-02-01T01:13:33;16;14;
31330;PMS5003;34067;39.548;-76.088;2023-02-01T01:16:02;21;18;
31330;PMS5003;34067;39.548;-76.088;2023-02-01T01:18:32;25;21;
31330;PMS5003;34067;39.548;-76.088;2023-02-01T01:21:03;20;18;
31330;PMS5003;34067;39.548;-76.088;2023-02-01T01:23:33;20;18;
31330;PMS5003;34067;39.548;-76.088;2023-02-01T01:26:04;25;22;
31330;PMS5003;34067;39.548;-76.088;2023-02-01T01:28:33;24;21;
31330;PMS5003;34067;39.548;-76.088;2023-02-01T01:31:01;25;24;
31330;PMS5003;34067;39.548;-76.088;2023-02-01T01:33:29;24;22;
31330;PMS5003;34067;39.548;-76.088;2023-02-01T01:35:57;21;20;
31330;PMS5003;34067;39.548;-76.088;2023-02-01T01:38:25;24;21;
31330;PMS5003;34067;39.548;-76.088;2023-02-01T01:40:54;18;18;
31330;PMS5003;34067;39.548;-76.088;2023-02-01T01:43:22;19;16;
31330;PMS5003;34067;39.548;-76.088;2023-02-01T01:45:50;18;16;
31330;PMS5003;34067;39.548;-76.088;2023-02-01T01:48:20;21;19;
31330;PMS5003;34067;39.548;-76.088;2023-02-01T01:50:54;16;14;
31330;PMS5003;34067;39.548;-76.088;2023-02-01T01:53:27;20;19;
31330;PMS5003;34067;39.548;-76.088;2023-02-01T01:55:58;25;21;
31330;PMS5003;34067;39.548;-76.088;2023-02-01T01:58:28;18;18;
31330;PMS5003;34067;39.548;-76.088;2023-02-01T02:01:00;19;16;
31330;PMS5003;34067;39.548;-76.088;2023-02-01T02:03:30;20;20;
31330;PMS5003;34067;39.548;-76.088;2023-02-01T02:06:02;21;16;
31330;PMS5003;34067;39.548;-76.088;2023-02-01T02:08:37;26;22;
31330;PMS5003;34067;39.548;-76.088;2023-02-01T02:11:05;19;15;
31330;PMS5003;34067;39.548;-76.088;2023-02-01T02:13:34;20;18;
31330;PMS5003;34067;39.548;-76.088;2023-02-01T02:16:08;18;18;
31330;PMS5003;34067;39.548;-76.088;2023-02-01T02:19:02;14;13;
31330;PMS5003;34067;39.548;-76.088;2023-02-01T02:21:51;16;15;
31330;PMS5003;34067;39.548;-76.088;2023-02-01T02:24:43;19;16;
31330;PMS5003;34067;39.548;-76.088;2023-02-01T02:27:31;23;21;
31330;PMS5003;34067;39.548;-76.088;2023-02-01T02:30:19;21;20;
31330;PMS5003;34067;39.548;-76.088;2023-02-01T02:34:08;24;22;
31330;PMS5003;34067;39.548;-76.088;2023-02-01T02:36:48;25;21;
31330;PMS5003;34067;39.548;-76.088;2023-02-01T02:39:30;25;24;
31330;PMS5003;34067;39.548;-76.088;2023-02-01T02:42:07;21;21;
31330;PMS5003;34067;39.548;-76.088;2023-02-01T02:44:44;22;20;
31330;PMS5003;34067;39.548;-76.088;2023-02-01T02:47:17;21;20;
31330;PMS5003;34067;39.548;-76.088;2023-02-01T02:49:53;15;14;
31330;PMS5003;34067;39.548;-76.088;2023-02-01T02:52:25;24;21;
31330;PMS5003;34067;39.548;-76.088;2023-02-01T02:54:54;19;18;
31330;PMS5003;34067;39.548;-76.088;2023-02-01T02:57:26;22;19;
31330;PMS5003;34067;39.548;-76.088;2023-02-01T03:00:00;21;20;
31330;PMS5003;34067;39.548;-76.088;2023-02-01T03:02:31;21;20;
31330;PMS5003;34067;39.548;-76.088;2023-02-01T03:05:01;21;20;
31330;PMS5003;34067;39.548;-76.088;2023-02-01T03:08:03;20;19;
31330;PMS5003;34067;39.548;-76.088;2023-02-01T03:10:42;23;21;
31330;PMS5003;34067;39.548;-76.088;2023-02-01T03:13:19;21;20;
31330;PMS5003;34067;39.548;-76.088;2023-02-01T03:15:57;29;27;
31330;PMS5003;34067;39.548;-76.088;2023-02-01T03:18:32;26;21;
31330;PMS5003;34067;39.548;-76.088;2023-02-01T03:21:06;29;25;
31330;PMS5003;34067;39.548;-76.088;2023-02-01T03:23:40;31;25;
31330;PMS5003;34067;39.548;-76.088;2023-02-01T03:26:11;21;20;
31330;PMS5003;34067;39.548;-76.088;2023-02-01T03:28:45;25;23;
31330;PMS5003;34067;39.548;-76.088;2023-02-01T03:31:19;22;21;
31330;PMS5003;34067;39.548;-76.088;2023-02-01T03:33:47;28;26;
31330;PMS5003;34067;39.548;-76.088;2023-02-01T03:36:17;33;28;
31330;PMS5003;34067;39.548;-76.088;2023-02-01T03:38:55;27;24;
31330;PMS5003;34067;39.548;-76.088;2023-02-01T03:41:34;31;27;
31330;PMS5003;34067;39.548;-76.088;2023-02-01T03:44:09;26;24;
31330;PMS5003;34067;39.548;-76.088;2023-02-01T03:46:42;30;25;
31330;PMS5003;34067;39.548;-76.088;2023-02-01T03:49:18;25;23;
31330;PMS5003;34067;39.548;-76.088;2023-02-01T03:51:53;23;21;
31330;PMS5003;34067;39.548;-76.088;2023-02-01T03:54:23;24;21;
31330;PMS5003;34067;39.548;-76.088;2023-02-01T03:56:54;30;24;
31330;PMS5003;34067;39.548;-76.088;2023-02-01T03:59:25;30;24;
31330;PMS5003;34067;39.548;-76.088;2023-02-01T04:01:53;31;26;
31330;PMS5003;34067;39.548;-76.088;2023-02-01T04:04:21;28;25;
31330;PMS5003;34067;39.548;-76.088;2023-02-01T04:06:50;25;21;
31330;PMS5003;34067;39.548;-76.088;2023-02-01T04:09:18;24;21;
31330;PMS5003;34067;39.548;-76.088;2023-02-01T04:11:46;27;23;
31330;PMS5003;34067;39.548;-76.088;2023-02-01T04:14:15;26;24;
31330;PMS5003;34067;39.548;-76.088;2023-02-01T04:16:44;27;24;
31330;PMS5003;34067;39.548;-76.088;2023-02-01T04:19:13;31;26;
31330;PMS5003;34067;39.548;-76.088;2023-02-01T04:21:41;25;23;
31330;PMS5003;34067;39.548;-76.088;2023-02-01T04:24:10;30;24;
31330;PMS5003;34067;39.548;-76.088;2023-02-01T04:26:38;23;23;
31330;PMS5003;34067;39.548;-76.088;2023-02-01T04:29:05;30;27;
31330;PMS5003;34067;39.548;-76.088;2023-02-01T04:31:35;31;26;
31330;PMS5003;34067;39.548;-76.088;2023-02-01T04:34:03;23;21;
31330;PMS5003;34067;39.548;-76.088;2023-02-01T04:36:31;30;25;
31330;PMS5003;34067;39.548;-76.088;2023-02-01T04:38:59;25;23;
31330;PMS5003;34067;39.548;-76.088;2023-02-01T04:41:27;29;26;
31330;PMS5003;34067;39.548;-76.088;2023-02-01T04:43:56;24;24;
31330;PMS5003;34067;39.548;-76.088;2023-02-01T04:46:24;21;20;
31330;PMS5003;34067;39.548;-76.088;2023-02-01T04:48:52;24;24;
31330;PMS5003;34067;39.548;-76.088;2023-02-01T04:51:20;24;21;
31330;PMS5003;34067;39.548;-76.088;2023-02-01T04:53:48;26;23;
31330;PMS5003;34067;39.548;-76.088;2023-02-01T04:56:16;32;27;
31330;PMS5003;34067;39.548;-76.088;2023-02-01T04:58:44;29;25;
31330;PMS5003;34067;39.548;-76.088;2023-02-01T05:01:12;28;26;
31330;PMS5003;34067;39.548;-76.088;2023-02-01T05:03:40;25;25;
31330;PMS5003;34067;39.548;-76.088;2023-02-01T05:06:08;25;24;
31330;PMS5003;34067;39.548;-76.088;2023-02-01T05:08:36;26;24;
31330;PMS5003;34067;39.548;-76.088;2023-02-01T05:11:04;31;27;
31330;PMS5003;34067;39.548;-76.088;2023-02-01T05:13:33;33;30;
31330;PMS5003;34067;39.548;-76.088;2023-02-01T05:16:01;28;25;
31330;PMS5003;34067;39.548;-76.088;2023-02-01T05:18:31;25;25;
31330;PMS5003;34067;39.548;-76.088;2023-02-01T05:20:59;27;25;
31330;PMS5003;34067;39.548;-76.088;2023-02-01T05:23:27;30;24;
31330;PMS5003;34067;39.548;-76.088;2023-02-01T05:25:58;31;24;
31330;PMS5003;34067;39.548;-76.088;2023-02-01T05:28:27;25;24;
31330;PMS5003;34067;39.548;-76.088;2023-02-01T05:30:56;31;29;
31330;PMS5003;34067;39.548;-76.088;2023-02-01T05:33:24;36;35;
31330;PMS5003;34067;39.548;-76.088;2023-02-01T05:35:52;30;26;
31330;PMS5003;34067;39.548;-76.088;2023-02-01T05:38:20;24;21;
31330;PMS5003;34067;39.548;-76.088;2023-02-01T05:40:48;29;25;
31330;PMS5003;34067;39.548;-76.088;2023-02-01T05:43:17;31;28;
31330;PMS5003;34067;39.548;-76.088;2023-02-01T05:45:44;25;24;
31330;PMS5003;34067;39.548;-76.088;2023-02-01T05:48:13;34;28;
31330;PMS5003;34067;39.548;-76.088;2023-02-01T05:50:41;37;32;
31330;PMS5003;34067;39.548;-76.088;2023-02-01T05:53:10;28;24;
31330;PMS5003;34067;39.548;-76.088;2023-02-01T05:55:38;24;21;
31330;PMS5003;34067;39.548;-76.088;2023-02-01T05:58:06;30;25;
31330;PMS5003;34067;39.548;-76.088;2023-02-01T06:03:13;26;25;
31330;PMS5003;34067;39.548;-76.088;2023-02-01T06:05:43;30;24;
31330;PMS5003;34067;39.548;-76.088;2023-02-01T06:08:12;27;25;
31330;PMS5003;34067;39.548;-76.088;2023-02-01T06:10:41;32;31;
31330;PMS5003;34067;39.548;-76.088;2023-02-01T06:13:09;36;29;
31330;PMS5003;34067;39.548;-76.088;2023-02-01T06:15:37;36;30;
31330;PMS5003;34067;39.548;-76.088;2023-02-01T06:18:05;26;21;
31330;PMS5003;34067;39.548;-76.088;2023-02-01T06:20:33;29;25;
31330;PMS5003;34067;39.548;-76.088;2023-02-01T06:23:01;30;29;
31330;PMS5003;34067;39.548;-76.088;2023-02-01T06:25:29;27;24;
31330;PMS5003;34067;39.548;-76.088;2023-02-01T06:28:00;35;30;
31330;PMS5003;34067;39.548;-76.088;2023-02-01T06:30:29;33;29;
31330;PMS5003;34067;39.548;-76.088;2023-02-01T06:32:56;30;25;
31330;PMS5003;34067;39.548;-76.088;2023-02-01T06:35:24;23;21;
31330;PMS5003;34067;39.548;-76.088;2023-02-01T06:37:52;34;32;
31330;PMS5003;34067;39.548;-76.088;2023-02-01T06:40:38;29;26;
31330;PMS5003;34067;39.548;-76.088;2023-02-01T06:43:18;30;28;
31330;PMS5003;34067;39.548;-76.088;2023-02-01T06:45:47;33;29;
31330;PMS5003;34067;39.548;-76.088;2023-02-01T06:48:15;34;30;
31330;PMS5003;34067;39.548;-76.088;2023-02-01T06:50:43;30;29;
31330;PMS5003;34067;39.548;-76.088;2023-02-01T06:53:11;29;24;
31330;PMS5003;34067;39.548;-76.088;2023-02-01T06:55:39;26;25;
31330;PMS5003;34067;39.548;-76.088;2023-02-01T06:58:07;32;27;
31330;PMS5003;34067;39.548;-76.088;2023-02-01T07:00:35;28;24;
31330;PMS5003;34067;39.548;-76.088;2023-02-01T07:03:03;35;33;
31330;PMS5003;34067;39.548;-76.088;2023-02-01T07:05:31;33;26;
31330;PMS5003;34067;39.548;-76.088;2023-02-01T07:07:59;30;27;
31330;PMS5003;34067;39.548;-76.088;2023-02-01T07:10:27;35;33;
31330;PMS5003;34067;39.548;-76.088;2023-02-01T07:12:56;36;30;
31330;PMS5003;34067;39.548;-76.088;2023-02-01T07:15:24;28;26;
31330;PMS5003;34067;39.548;-76.088;2023-02-01T07:17:54;35;34;
31330;PMS5003;34067;39.548;-76.088;2023-02-01T07:20:22;35;30;
31330;PMS5003;34067;39.548;-76.088;2023-02-01T07:22:54;40;36;
31330;PMS5003;34067;39.548;-76.088;2023-02-01T07:25:22;40;31;
31330;PMS5003;34067;39.548;-76.088;2023-02-01T07:27:50;32;32;
31330;PMS5003;34067;39.548;-76.088;2023-02-01T07:30:18;31;29;
31330;PMS5003;34067;39.548;-76.088;2023-02-01T07:32:47;36;33;
31330;PMS5003;34067;39.548;-76.088;2023-02-01T07:35:15;40;31;
31330;PMS5003;34067;39.548;-76.088;2023-02-01T07:37:44;35;29;
31330;PMS5003;34067;39.548;-76.088;2023-02-01T07:40:12;33;28;
31330;PMS5003;34067;39.548;-76.088;2023-02-01T07:42:40;44;38;
31330;PMS5003;34067;39.548;-76.088;2023-02-01T07:45:08;34;30;
31330;PMS5003;34067;39.548;-76.088;2023-02-01T07:47:37;34;28;
31330;PMS5003;34067;39.548;-76.088;2023-02-01T07:50:05;34;28;
31330;PMS5003;34067;39.548;-76.088;2023-02-01T07:52:34;34;31;
31330;PMS5003;34067;39.548;-76.088;2023-02-01T07:55:02;25;23;
31330;PMS5003;34067;39.548;-76.088;2023-02-01T07:57:31;31;29;
31330;PMS5003;34067;39.548;-76.088;2023-02-01T07:59:59;31;29;
31330;PMS5003;34067;39.548;-76.088;2023-02-01T08:02:27;34;31;
31330;PMS5003;34067;39.548;-76.088;2023-02-01T08:04:56;32;30;
31330;PMS5003;34067;39.548;-76.088;2023-02-01T08:07:24;29;29;
31330;PMS5003;34067;39.548;-76.088;2023-02-01T08:09:52;31;29;
31330;PMS5003;34067;39.548;-76.088;2023-02-01T08:12:20;36;30;
31330;PMS5003;34067;39.548;-76.088;2023-02-01T08:14:47;34;30;
31330;PMS5003;34067;39.548;-76.088;2023-02-01T08:17:15;41;30;
31330;PMS5003;34067;39.548;-76.088;2023-02-01T08:19:43;32;30;
31330;PMS5003;34067;39.548;-76.088;2023-02-01T08:22:11;38;32;
31330;PMS5003;34067;39.548;-76.088;2023-02-01T08:24:40;42;31;
31330;PMS5003;34067;39.548;-76.088;2023-02-01T08:27:08;37;33;
31330;PMS5003;34067;39.548;-76.088;2023-02-01T08:29:36;34;29;
31330;PMS5003;34067;39.548;-76.088;2023-02-01T08:32:04;35;31;
31330;PMS5003;34067;39.548;-76.088;2023-02-01T08:34:32;41;35;
31330;PMS5003;34067;39.548;-76.088;2023-02-01T08:37:01;32;30;
31330;PMS5003;34067;39.548;-76.088;2023-02-01T08:39:29;35;30;
31330;PMS5003;34067;39.548;-76.088;2023-02-01T08:41:57;33;31;
31330;PMS5003;34067;39.548;-76.088;2023-02-01T08:44:25;44;36;
31330;PMS5003;34067;39.548;-76.088;2023-02-01T08:46:53;32;28;
31330;PMS5003;34067;39.548;-76.088;2023-02-01T08:49:20;30;26;
31330;PMS5003;34067;39.548;-76.088;2023-02-01T08:51:48;40;27;
31330;PMS5003;34067;39.548;-76.088;2023-02-01T08:54:16;34;31;
31330;PMS5003;34067;39.548;-76.088;2023-02-01T08:56:44;38;33;
31330;PMS5003;34067;39.548;-76.088;2023-02-01T08:59:11;32;31;
31330;PMS5003;34067;39.548;-76.088;2023-02-01T09:01:40;28;26;
31330;PMS5003;34067;39.548;-76.088;2023-02-01T09:04:07;28;27;
31330;PMS5003;34067;39.548;-76.088;2023-02-01T09:06:35;30;25;
31330;PMS5003;34067;39.548;-76.088;2023-02-01T09:09:07;32;26;
31330;PMS5003;34067;39.548;-76.088;2023-02-01T09:11:35;36;30;
31330;PMS5003;34067;39.548;-76.088;2023-02-01T09:14:03;32;27;
31330;PMS5003;34067;39.548;-76.088;2023-02-01T09:16:31;38;28;
31330;PMS5003;34067;39.548;-76.088;2023-02-01T09:18:59;26;26;
31330;PMS5003;34067;39.548;-76.088;2023-02-01T09:21:27;33;31;
31330;PMS5003;34067;39.548;-76.088;2023-02-01T09:23:55;28;25;
31330;PMS5003;34067;39.548;-76.088;2023-02-01T09:26:23;28;27;
31330;PMS5003;34067;39.548;-76.088;2023-02-01T09:28:51;35;31;
31330;PMS5003;34067;39.548;-76.088;2023-02-01T09:31:19;38;33;
31330;PMS5003;34067;39.548;-76.088;2023-02-01T09:33:47;25;24;
31330;PMS5003;34067;39.548;-76.088;2023-02-01T09:36:15;22;21;
31330;PMS5003;34067;39.548;-76.088;2023-02-01T09:38:43;27;26;
31330;PMS5003;34067;39.548;-76.088;2023-02-01T09:41:17;24;20;
31330;PMS5003;34067;39.548;-76.088;2023-02-01T09:44:01;31;25;
31330;PMS5003;34067;39.548;-76.088;2023-02-01T09:46:35;31;29;
31330;PMS5003;34067;39.548;-76.088;2023-02-01T09:49:05;35;28;
31330;PMS5003;34067;39.548;-76.088;2023-02-01T09:51:44;23;21;
31330;PMS5003;34067;39.548;-76.088;2023-02-01T09:54:23;26;22;
31330;PMS5003;34067;39.548;-76.088;2023-02-01T09:56:54;24;20;
31330;PMS5003;34067;39.548;-76.088;2023-02-01T09:59:30;24;22;
31330;PMS5003;34067;39.548;-76.088;2023-02-01T10:02:10;25;22;
31330;PMS5003;34067;39.548;-76.088;2023-02-01T10:04:40;23;20;
31330;PMS5003;34067;39.548;-76.088;2023-02-01T10:07:12;24;18;
31330;PMS5003;34067;39.548;-76.088;2023-02-01T10:09:52;25;20;
31330;PMS5003;34067;39.548;-76.088;2023-02-01T10:13:04;23;20;
31330;PMS5003;34067;39.548;-76.088;2023-02-01T10:15:44;28;24;
31330;PMS5003;34067;39.548;-76.088;2023-02-01T10:18:58;28;23;
31330;PMS5003;34067;39.548;-76.088;2023-02-01T10:21:44;24;19;
31330;PMS5003;34067;39.548;-76.088;2023-02-01T10:24:25;20;18;
31330;PMS5003;34067;39.548;-76.088;2023-02-01T10:27:09;25;22;
31330;PMS5003;34067;39.548;-76.088;2023-02-01T10:29:41;25;23;
31330;PMS5003;34067;39.548;-76.088;2023-02-01T10:32:12;28;23;
31330;PMS5003;34067;39.548;-76.088;2023-02-01T10:34:42;25;23;
31330;PMS5003;34067;39.548;-76.088;2023-02-01T10:37:20;24;23;
31330;PMS5003;34067;39.548;-76.088;2023-02-01T10:39:54;25;22;
31330;PMS5003;34067;39.548;-76.088;2023-02-01T10:42:25;29;24;
31330;PMS5003;34067;39.548;-76.088;2023-02-01T10:44:54;21;20;
31330;PMS5003;34067;39.548;-76.088;2023-02-01T10:47:25;32;31;
31330;PMS5003;34067;39.548;-76.088;2023-02-01T10:49:55;31;24;
31330;PMS5003;34067;39.548;-76.088;2023-02-01T10:52:33;29;26;
31330;PMS5003;34067;39.548;-76.088;2023-02-01T10:55:41;26;25;
31330;PMS5003;34067;39.548;-76.088;2023-02-01T10:58:15;24;21;
31330;PMS5003;34067;39.548;-76.088;2023-02-01T11:00:47;30;23;
31330;PMS5003;34067;39.548;-76.088;2023-02-01T11:03:21;26;23;
31330;PMS5003;34067;39.548;-76.088;2023-02-01T11:05:59;24;24;
31330;PMS5003;34067;39.548;-76.088;2023-02-01T11:08:29;20;19;
31330;PMS5003;34067;39.548;-76.088;2023-02-01T11:10:58;24;20;
31330;PMS5003;34067;39.548;-76.088;2023-02-01T11:13:30;31;26;
31330;PMS5003;34067;39.548;-76.088;2023-02-01T11:15:59;29;25;
31330;PMS5003;34067;39.548;-76.088;2023-02-01T11:18:31;22;22;
31330;PMS5003;34067;39.548;-76.088;2023-02-01T11:21:03;33;27;
31330;PMS5003;34067;39.548;-76.088;2023-02-01T11:23:32;25;23;
31330;PMS5003;34067;39.548;-76.088;2023-02-01T11:26:09;22;18;
31330;PMS5003;34067;39.548;-76.088;2023-02-01T11:28:40;24;19;
31330;PMS5003;34067;39.548;-76.088;2023-02-01T11:31:17;18;16;
31330;PMS5003;34067;39.548;-76.088;2023-02-01T11:33:48;21;19;
31330;PMS5003;34067;39.548;-76.088;2023-02-01T11:36:20;14;14;
31330;PMS5003;34067;39.548;-76.088;2023-02-01T11:38:52;17;17;
31330;PMS5003;34067;39.548;-76.088;2023-02-01T11:41:34;13;13;
31330;PMS5003;34067;39.548;-76.088;2023-02-01T11:44:18;13;13;
31330;PMS5003;34067;39.548;-76.088;2023-02-01T11:46:49;16;13;
31330;PMS5003;34067;39.548;-76.088;2023-02-01T11:49:21;14;13;
31330;PMS5003;34067;39.548;-76.088;2023-02-01T11:51:54;12;12;
31330;PMS5003;34067;39.548;-76.088;2023-02-01T11:54:43;16;14;
31330;PMS5003;34067;39.548;-76.088;2023-02-01T11:57:29;13;13;
31330;PMS5003;34067;39.548;-76.088;2023-02-01T12:00:16;8;8;
31330;PMS5003;34067;39.548;-76.088;2023-02-01T12:05:38;17;16;
31330;PMS5003;34067;39.548;-76.088;2023-02-01T12:09:23;12;12;
31330;PMS5003;34067;39.548;-76.088;2023-02-01T12:12:41;11;11;
31330;PMS5003;34067;39.548;-76.088;2023-02-01T12:15:25;16;14;
31330;PMS5003;34067;39.548;-76.088;2023-02-01T12:18:17;19;16;
31330;PMS5003;34067;39.548;-76.088;2023-02-01T12:21:06;16;12;
31330;PMS5003;34067;39.548;-76.088;2023-02-01T12:23:54;13;12;
31330;PMS5003;34067;39.548;-76.088;2023-02-01T12:26:40;11;11;
31330;PMS5003;34067;39.548;-76.088;2023-02-01T12:29:19;16;13;
31330;PMS5003;34067;39.548;-76.088;2023-02-01T12:32:02;12;11;
31330;PMS5003;34067;39.548;-76.088;2023-02-01T12:34:46;14;13;
31330;PMS5003;34067;39.548;-76.088;2023-02-01T12:37:29;10;10;
31330;PMS5003;34067;39.548;-76.088;2023-02-01T12:40:11;11;11;
31330;PMS5003;34067;39.548;-76.088;2023-02-01T12:43:02;12;11;
31330;PMS5003;34067;39.548;-76.088;2023-02-01T12:45:39;9;9;
31330;PMS5003;34067;39.548;-76.088;2023-02-01T12:48:21;11;10;
31330;PMS5003;34067;39.548;-76.088;2023-02-01T12:50:59;9;9;
31330;PMS5003;34067;39.548;-76.088;2023-02-01T12:53:32;13;13;
31330;PMS5003;34067;39.548;-76.088;2023-02-01T12:56:15;11;11;
31330;PMS5003;34067;39.548;-76.088;2023-02-01T12:58:49;12;12;
31330;PMS5003;34067;39.548;-76.088;2023-02-01T13:01:20;13;12;
31330;PMS5003;34067;39.548;-76.088;2023-02-01T13:03:55;13;13;
31330;PMS5003;34067;39.548;-76.088;2023-02-01T13:06:30;12;9;
31330;PMS5003;34067;39.548;-76.088;2023-02-01T13:09:04;11;9;
31330;PMS5003;34067;39.548;-76.088;2023-02-01T13:11:43;13;11;
31330;PMS5003;34067;39.548;-76.088;2023-02-01T13:14:15;11;11;
31330;PMS5003;34067;39.548;-76.088;2023-02-01T13:17:02;11;10;
31330;PMS5003;34067;39.548;-76.088;2023-02-01T13:19:35;11;11;
31330;PMS5003;34067;39.548;-76.088;2023-02-01T13:22:11;12;12;
31330;PMS5003;34067;39.548;-76.088;2023-02-01T13:24:45;12;11;
31330;PMS5003;34067;39.548;-76.088;2023-02-01T13:27:18;10;10;
31330;PMS5003;34067;39.548;-76.088;2023-02-01T13:29:48;17;11;
31330;PMS5003;34067;39.548;-76.088;2023-02-01T13:32:55;11;11;
31330;PMS5003;34067;39.548;-76.088;2023-02-01T13:37:17;12;11;
31330;PMS5003;34067;39.548;-76.088;2023-02-01T13:40:00;15;12;
31330;PMS5003;34067;39.548;-76.088;2023-02-01T13:42:46;13;12;
31330;PMS5003;34067;39.548;-76.088;2023-02-01T13:45:19;6;6;
31330;PMS5003;34067;39.548;-76.088;2023-02-01T13:47:51;11;10;
31330;PMS5003;34067;39.548;-76.088;2023-02-01T13:50:23;11;11;
31330;PMS5003;34067;39.548;-76.088;2023-02-01T13:52:56;11;11;
31330;PMS5003;34067;39.548;-76.088;2023-02-01T13:55:27;11;10;
31330;PMS5003;34067;39.548;-76.088;2023-02-01T13:58:03;10;8;
31330;PMS5003;34067;39.548;-76.088;2023-02-01T14:00:40;10;8;
31330;PMS5003;34067;39.548;-76.088;2023-02-01T14:03:12;8;8;
31330;PMS5003;34067;39.548;-76.088;2023-02-01T14:06:00;8;8;
31330;PMS5003;34067;39.548;-76.088;2023-02-01T14:09:43;7;7;
31330;PMS5003;34067;39.548;-76.088;2023-02-01T14:12:45;6;6;
31330;PMS5003;34067;39.548;-76.088;2023-02-01T14:15:23;11;10;
31330;PMS5003;34067;39.548;-76.088;2023-02-01T14:17:52;11;10;
31330;PMS5003;34067;39.548;-76.088;2023-02-01T14:20:45;7;7;
31330;PMS5003;34067;39.548;-76.088;2023-02-01T14:23:16;10;10;
31330;PMS5003;34067;39.548;-76.088;2023-02-01T14:25:48;8;7;
31330;PMS5003;34067;39.548;-76.088;2023-02-01T14:28:32;11;10;
31330;PMS5003;34067;39.548;-76.088;2023-02-01T14:31:03;6;6;
31330;PMS5003;34067;39.548;-76.088;2023-02-01T14:34:00;6;6;
31330;PMS5003;34067;39.548;-76.088;2023-02-01T14:36:39;8;8;
31330;PMS5003;34067;39.548;-76.088;2023-02-01T14:39:19;7;7;
31330;PMS5003;34067;39.548;-76.088;2023-02-01T14:41:53;8;8;
31330;PMS5003;34067;39.548;-76.088;2023-02-01T14:44:26;10;8;
31330;PMS5003;34067;39.548;-76.088;2023-02-01T14:47:53;11;11;
31330;PMS5003;34067;39.548;-76.088;2023-02-01T14:51:08;10;8;
31330;PMS5003;34067;39.548;-76.088;2023-02-01T14:53:39;8;8;
31330;PMS5003;34067;39.548;-76.088;2023-02-01T14:56:09;7;7;
31330;PMS5003;34067;39.548;-76.088;2023-02-01T14:58:44;8;8;
31330;PMS5003;34067;39.548;-76.088;2023-02-01T15:01:20;8;7;
31330;PMS5003;34067;39.548;-76.088;2023-02-01T15:03:52;12;12;
31330;PMS5003;34067;39.548;-76.088;2023-02-01T15:06:30;12;10;
31330;PMS5003;34067;39.548;-76.088;2023-02-01T15:09:03;8;8;
31330;PMS5003;34067;39.548;-76.088;2023-02-01T15:11:53;13;11;
31330;PMS5003;34067;39.548;-76.088;2023-02-01T15:14:24;7;6;
31330;PMS5003;34067;39.548;-76.088;2023-02-01T15:16:53;7;7;
31330;PMS5003;34067;39.548;-76.088;2023-02-01T15:19:24;10;8;
31330;PMS5003;34067;39.548;-76.088;2023-02-01T15:21:54;13;12;
31330;PMS5003;34067;39.548;-76.088;2023-02-01T15:24:24;8;8;
31330;PMS5003;34067;39.548;-76.088;2023-02-01T15:26:54;9;8;
31330;PMS5003;34067;39.548;-76.088;2023-02-01T15:29:29;12;12;
31330;PMS5003;34067;39.548;-76.088;2023-02-01T15:31:57;13;11;
31330;PMS5003;34067;39.548;-76.088;2023-02-01T15:34:43;8;8;
31330;PMS5003;34067;39.548;-76.088;2023-02-01T15:37:13;8;8;
31330;PMS5003;34067;39.548;-76.088;2023-02-01T15:40:02;12;11;
31330;PMS5003;34067;39.548;-76.088;2023-02-01T15:42:48;11;9;
31330;PMS5003;34067;39.548;-76.088;2023-02-01T15:45:20;12;11;
31330;PMS5003;34067;39.548;-76.088;2023-02-01T15:47:52;12;12;
31330;PMS5003;34067;39.548;-76.088;2023-02-01T15:50:22;11;11;
31330;PMS5003;34067;39.548;-76.088;2023-02-01T15:52:51;8;8;
31330;PMS5003;34067;39.548;-76.088;2023-02-01T15:55:33;11;9;
31330;PMS5003;34067;39.548;-76.088;2023-02-01T15:58:30;12;9;
31330;PMS5003;34067;39.548;-76.088;2023-02-01T16:00:58;9;8;
31330;PMS5003;34067;39.548;-76.088;2023-02-01T16:03:36;9;9;
31330;PMS5003;34067;39.548;-76.088;2023-02-01T16:06:07;12;11;
31330;PMS5003;34067;39.548;-76.088;2023-02-01T16:08:36;13;12;
31330;PMS5003;34067;39.548;-76.088;2023-02-01T16:11:21;11;9;
31330;PMS5003;34067;39.548;-76.088;2023-02-01T16:13:52;13;12;
31330;PMS5003;34067;39.548;-76.088;2023-02-01T16:16:19;9;7;
31330;PMS5003;34067;39.548;-76.088;2023-02-01T16:18:47;9;9;
31330;PMS5003;34067;39.548;-76.088;2023-02-01T16:21:15;13;11;
31330;PMS5003;34067;39.548;-76.088;2023-02-01T16:23:48;11;9;
31330;PMS5003;34067;39.548;-76.088;2023-02-01T16:26:17;9;9;
31330;PMS5003;34067;39.548;-76.088;2023-02-01T16:28:46;11;11;
31330;PMS5003;34067;39.548;-76.088;2023-02-01T16:31:15;14;14;
31330;PMS5003;34067;39.548;-76.088;2023-02-01T16:33:45;11;11;
31330;PMS5003;34067;39.548;-76.088;2023-02-01T16:36:14;12;11;
31330;PMS5003;34067;39.548;-76.088;2023-02-01T16:38:43;16;12;